Time;durP1;ratioP1;P1;durP2;ratioP2;P2;SDS_P1;SDS_P2;PMS_P1;PMS_P2;Temp;Humidity;BMP_temperature;BMP_pressure;BME280_temperature;BME280_humidity;BME280_pressure;Samples;Min_cycle;Max_cycle;Signal;HPM_P1;HPM_P2
2022/10/06 00:00:32;;;;;;;1.2;1;;;;;;;9.88;100;96219.3;;;;
2022/10/06 00:01:33;;;;;;;1.2;1;;;;;;;9.88;100;96219.3;;;;
2022/10/06 00:02:34;;;;;;;1.2;1;;;;;;;9.88;100;96219.3;;;;
2022/10/06 00:03:36;;;;;;;1.2;1;;;;;;;9.88;100;96219.3;;;;
2022/10/06 00:04:37;;;;;;;1.15;1.05;;;;;;;9.73;100;96236.06;;;;
2022/10/06 00:05:38;;;;;;;1.15;1.05;;;;;;;9.73;100;96236.06;;;;
2022/10/06 00:06:39;;;;;;;1.15;1.05;;;;;;;9.73;100;96236.06;;;;
2022/10/06 00:07:39;;;;;;;1.15;1.05;;;;;;;9.73;100;96236.06;;;;
2022/10/06 00:08:40;;;;;;;1.15;1.05;;;;;;;9.73;100;96236.06;;;;
2022/10/06 00:09:42;;;;;;;1.15;1.05;;;;;;;9.73;100;96236.06;;;;
2022/10/06 00:10:42;;;;;;;1.15;1.05;;;;;;;9.73;100;96236.06;;;;
2022/10/06 00:11:43;;;;;;;1.15;1.05;;;;;;;9.73;100;96236.06;;;;
2022/10/06 00:12:44;;;;;;;1.15;1.05;;;;;;;9.73;100;96236.06;;;;
2022/10/06 00:13:46;;;;;;;1.15;1.05;;;;;;;9.73;100;96236.06;;;;
2022/10/06 00:14:47;;;;;;;1;0.9;;;;;;;9.61;100;96242.4;;;;
2022/10/06 00:15:47;;;;;;;1;0.9;;;;;;;9.61;100;96242.4;;;;
2022/10/06 00:16:48;;;;;;;1;0.9;;;;;;;9.61;100;96242.4;;;;
2022/10/06 00:17:49;;;;;;;1;0.9;;;;;;;9.61;100;96242.4;;;;
2022/10/06 00:18:49;;;;;;;1;0.9;;;;;;;9.61;100;96242.4;;;;
2022/10/06 00:19:50;;;;;;;1;0.9;;;;;;;9.61;100;96242.4;;;;
2022/10/06 00:20:52;;;;;;;1;0.9;;;;;;;9.61;100;96242.4;;;;
2022/10/06 00:21:54;;;;;;;1;0.9;;;;;;;9.61;100;96242.4;;;;
2022/10/06 00:22:55;;;;;;;1;0.9;;;;;;;9.61;100;96242.4;;;;
2022/10/06 00:23:56;;;;;;;1;0.9;;;;;;;9.61;100;96242.4;;;;
2022/10/06 00:24:57;;;;;;;1;0.9;;;;;;;9.61;100;96242.4;;;;
2022/10/06 00:25:58;;;;;;;1.1;1;;;;;;;9.6;100;96244.28;;;;
2022/10/06 00:26:58;;;;;;;1.1;1;;;;;;;9.6;100;96244.28;;;;
2022/10/06 00:27:59;;;;;;;1.1;1;;;;;;;9.6;100;96244.28;;;;
2022/10/06 00:28:59;;;;;;;1.1;1;;;;;;;9.6;100;96244.28;;;;
2022/10/06 00:30:00;;;;;;;1.1;1;;;;;;;9.6;100;96244.28;;;;
2022/10/06 00:31:00;;;;;;;1.1;1;;;;;;;9.6;100;96244.28;;;;
2022/10/06 00:32:01;;;;;;;1.1;1;;;;;;;9.6;100;96244.28;;;;
2022/10/06 00:33:03;;;;;;;1.1;1;;;;;;;9.6;100;96244.28;;;;
2022/10/06 00:34:04;;;;;;;1.1;1;;;;;;;9.6;100;96244.28;;;;
2022/10/06 00:35:04;;;;;;;1.1;1;;;;;;;9.6;100;96244.28;;;;
2022/10/06 00:36:07;;;;;;;0.9;0.9;;;;;;;9.58;100;96250.27;;;;
2022/10/06 00:37:08;;;;;;;0.9;0.9;;;;;;;9.58;100;96250.27;;;;
2022/10/06 00:38:08;;;;;;;0.9;0.9;;;;;;;9.58;100;96250.27;;;;
2022/10/06 00:39:10;;;;;;;0.9;0.9;;;;;;;9.58;100;96250.27;;;;
2022/10/06 00:40:11;;;;;;;0.9;0.9;;;;;;;9.58;100;96250.27;;;;
2022/10/06 00:41:12;;;;;;;0.9;0.9;;;;;;;9.58;100;96250.27;;;;
2022/10/06 00:42:14;;;;;;;0.9;0.9;;;;;;;9.58;100;96250.27;;;;
2022/10/06 00:43:24;;;;;;;0.9;0.9;;;;;;;9.58;100;96250.27;;;;
2022/10/06 00:44:43;;;;;;;0.9;0.9;;;;;;;9.58;100;96250.27;;;;
2022/10/06 00:45:47;;;;;;;0.9;0.9;;;;;;;9.58;100;96250.27;;;;
2022/10/06 00:46:48;;;;;;;1.05;0.95;;;;;;;9.55;100;96245.33;;;;
2022/10/06 00:47:51;;;;;;;1.05;0.95;;;;;;;9.55;100;96245.33;;;;
2022/10/06 00:48:53;;;;;;;1.05;0.95;;;;;;;9.55;100;96245.33;;;;
2022/10/06 00:49:57;;;;;;;1.05;0.95;;;;;;;9.55;100;96245.33;;;;
2022/10/06 00:51:00;;;;;;;1.05;0.95;;;;;;;9.55;100;96245.33;;;;
2022/10/06 00:52:01;;;;;;;1.05;0.95;;;;;;;9.55;100;96245.33;;;;
2022/10/06 00:53:04;;;;;;;1.05;0.95;;;;;;;9.55;100;96245.33;;;;
2022/10/06 00:54:06;;;;;;;1.05;0.95;;;;;;;9.55;100;96245.33;;;;
2022/10/06 00:55:08;;;;;;;1.05;0.95;;;;;;;9.55;100;96245.33;;;;
2022/10/06 00:56:08;;;;;;;1.05;0.95;;;;;;;9.55;100;96245.33;;;;
2022/10/06 00:57:10;;;;;;;1.05;0.95;;;;;;;9.55;100;96245.33;;;;
2022/10/06 00:58:12;;;;;;;1.4;0.9;;;;;;;9.42;100;96254.38;;;;
2022/10/06 00:59:13;;;;;;;1.4;0.9;;;;;;;9.42;100;96254.38;;;;
2022/10/06 01:00:16;;;;;;;1.4;0.9;;;;;;;9.42;100;96254.38;;;;
2022/10/06 01:01:17;;;;;;;1.4;0.9;;;;;;;9.42;100;96254.38;;;;
2022/10/06 01:02:18;;;;;;;1.4;0.9;;;;;;;9.42;100;96254.38;;;;
2022/10/06 01:03:26;;;;;;;1.4;0.9;;;;;;;9.42;100;96254.38;;;;
2022/10/06 01:04:30;;;;;;;1.4;0.9;;;;;;;9.42;100;96254.38;;;;
2022/10/06 01:05:32;;;;;;;1.4;0.9;;;;;;;9.42;100;96254.38;;;;
2022/10/06 01:06:40;;;;;;;1.4;0.9;;;;;;;9.42;100;96254.38;;;;
2022/10/06 01:07:43;;;;;;;1.4;0.9;;;;;;;9.42;100;96254.38;;;;
2022/10/06 01:08:44;;;;;;;0.9;0.9;;;;;;;9.32;100;96254.64;;;;
2022/10/06 01:09:45;;;;;;;0.9;0.9;;;;;;;9.32;100;96254.64;;;;
2022/10/06 01:10:46;;;;;;;0.9;0.9;;;;;;;9.32;100;96254.64;;;;
2022/10/06 01:11:46;;;;;;;0.9;0.9;;;;;;;9.32;100;96254.64;;;;
2022/10/06 01:12:48;;;;;;;0.9;0.9;;;;;;;9.32;100;96254.64;;;;
2022/10/06 01:13:49;;;;;;;0.9;0.9;;;;;;;9.32;100;96254.64;;;;
2022/10/06 01:14:51;;;;;;;0.9;0.9;;;;;;;9.32;100;96254.64;;;;
2022/10/06 01:15:52;;;;;;;0.9;0.9;;;;;;;9.32;100;96254.64;;;;
2022/10/06 01:16:58;;;;;;;0.9;0.9;;;;;;;9.32;100;96254.64;;;;
2022/10/06 01:18:03;;;;;;;0.9;0.9;;;;;;;9.32;100;96254.64;;;;
2022/10/06 01:19:09;;;;;;;1.2;0.95;;;;;;;9.16;100;96252.17;;;;
2022/10/06 01:20:19;;;;;;;1.2;0.95;;;;;;;9.16;100;96252.17;;;;
2022/10/06 01:21:21;;;;;;;1.2;0.95;;;;;;;9.16;100;96252.17;;;;
2022/10/06 01:22:30;;;;;;;1.2;0.95;;;;;;;9.16;100;96252.17;;;;
2022/10/06 01:23:33;;;;;;;1.2;0.95;;;;;;;9.16;100;96252.17;;;;
2022/10/06 01:24:35;;;;;;;1.2;0.95;;;;;;;9.16;100;96252.17;;;;
2022/10/06 01:25:36;;;;;;;1.2;0.95;;;;;;;9.16;100;96252.17;;;;
2022/10/06 01:26:36;;;;;;;1.2;0.95;;;;;;;9.16;100;96252.17;;;;
2022/10/06 01:27:44;;;;;;;1.2;0.95;;;;;;;9.16;100;96252.17;;;;
2022/10/06 01:28:47;;;;;;;1.2;0.95;;;;;;;9.16;100;96252.17;;;;
2022/10/06 01:29:48;;;;;;;1.3;0.9;;;;;;;9.02;100;96262.61;;;;
2022/10/06 01:30:51;;;;;;;1.3;0.9;;;;;;;9.02;100;96262.61;;;;
2022/10/06 01:31:53;;;;;;;1.3;0.9;;;;;;;9.02;100;96262.61;;;;
2022/10/06 01:32:54;;;;;;;1.3;0.9;;;;;;;9.02;100;96262.61;;;;
2022/10/06 01:33:55;;;;;;;1.3;0.9;;;;;;;9.02;100;96262.61;;;;
2022/10/06 01:34:55;;;;;;;1.3;0.9;;;;;;;9.02;100;96262.61;;;;
2022/10/06 01:35:56;;;;;;;1.3;0.9;;;;;;;9.02;100;96262.61;;;;
2022/10/06 01:36:57;;;;;;;1.3;0.9;;;;;;;9.02;100;96262.61;;;;
2022/10/06 01:37:58;;;;;;;1.3;0.9;;;;;;;9.02;100;96262.61;;;;
2022/10/06 01:38:58;;;;;;;1.3;0.9;;;;;;;9.02;100;96262.61;;;;
2022/10/06 01:39:59;;;;;;;0.9;0.9;;;;;;;8.9;100;96258.74;;;;
2022/10/06 01:41:00;;;;;;;0.9;0.9;;;;;;;8.9;100;96258.74;;;;
2022/10/06 01:42:00;;;;;;;0.9;0.9;;;;;;;8.9;100;96258.74;;;;
2022/10/06 01:43:01;;;;;;;0.9;0.9;;;;;;;8.9;100;96258.74;;;;
2022/10/06 01:44:01;;;;;;;0.9;0.9;;;;;;;8.9;100;96258.74;;;;
2022/10/06 01:45:02;;;;;;;0.9;0.9;;;;;;;8.9;100;96258.74;;;;
2022/10/06 01:46:04;;;;;;;0.9;0.9;;;;;;;8.9;100;96258.74;;;;
2022/10/06 01:47:05;;;;;;;0.9;0.9;;;;;;;8.9;100;96258.74;;;;
2022/10/06 01:48:06;;;;;;;0.9;0.9;;;;;;;8.9;100;96258.74;;;;
2022/10/06 01:49:06;;;;;;;0.9;0.9;;;;;;;8.9;100;96258.74;;;;
2022/10/06 01:50:07;;;;;;;0.9;0.9;;;;;;;8.9;100;96258.74;;;;
2022/10/06 01:51:08;;;;;;;1.4;0.85;;;;;;;8.81;100;96266.49;;;;
2022/10/06 01:52:12;;;;;;;1.4;0.85;;;;;;;8.81;100;96266.49;;;;
2022/10/06 01:53:13;;;;;;;1.4;0.85;;;;;;;8.81;100;96266.49;;;;
2022/10/06 01:54:13;;;;;;;1.4;0.85;;;;;;;8.81;100;96266.49;;;;
2022/10/06 01:55:14;;;;;;;1.4;0.85;;;;;;;8.81;100;96266.49;;;;
2022/10/06 01:56:15;;;;;;;1.4;0.85;;;;;;;8.81;100;96266.49;;;;
2022/10/06 01:57:16;;;;;;;1.4;0.85;;;;;;;8.81;100;96266.49;;;;
2022/10/06 01:58:16;;;;;;;1.4;0.85;;;;;;;8.81;100;96266.49;;;;
2022/10/06 01:59:16;;;;;;;1.4;0.85;;;;;;;8.81;100;96266.49;;;;
2022/10/06 02:00:17;;;;;;;1.4;0.85;;;;;;;8.81;100;96266.49;;;;
2022/10/06 02:01:18;;;;;;;1.05;1;;;;;;;8.74;100;96276.11;;;;
2022/10/06 02:02:18;;;;;;;1.05;1;;;;;;;8.74;100;96276.11;;;;
2022/10/06 02:03:19;;;;;;;1.05;1;;;;;;;8.74;100;96276.11;;;;
2022/10/06 02:04:19;;;;;;;1.05;1;;;;;;;8.74;100;96276.11;;;;
2022/10/06 02:05:20;;;;;;;1.05;1;;;;;;;8.74;100;96276.11;;;;
2022/10/06 02:06:20;;;;;;;1.05;1;;;;;;;8.74;100;96276.11;;;;
2022/10/06 02:07:21;;;;;;;1.05;1;;;;;;;8.74;100;96276.11;;;;
2022/10/06 02:08:22;;;;;;;1.05;1;;;;;;;8.74;100;96276.11;;;;
2022/10/06 02:09:22;;;;;;;1.05;1;;;;;;;8.74;100;96276.11;;;;
2022/10/06 02:10:23;;;;;;;1.05;1;;;;;;;8.74;100;96276.11;;;;
2022/10/06 02:11:23;;;;;;;1.05;1;;;;;;;8.74;100;96276.11;;;;
2022/10/06 02:12:24;;;;;;;1.8;1;;;;;;;8.67;100;96281.75;;;;
2022/10/06 02:13:24;;;;;;;1.8;1;;;;;;;8.67;100;96281.75;;;;
2022/10/06 02:14:26;;;;;;;1.8;1;;;;;;;8.67;100;96281.75;;;;
2022/10/06 02:15:27;;;;;;;1.8;1;;;;;;;8.67;100;96281.75;;;;
2022/10/06 02:16:27;;;;;;;1.8;1;;;;;;;8.67;100;96281.75;;;;
2022/10/06 02:17:28;;;;;;;1.8;1;;;;;;;8.67;100;96281.75;;;;
2022/10/06 02:18:28;;;;;;;1.8;1;;;;;;;8.67;100;96281.75;;;;
2022/10/06 02:19:29;;;;;;;1.8;1;;;;;;;8.67;100;96281.75;;;;
2022/10/06 02:20:29;;;;;;;1.8;1;;;;;;;8.67;100;96281.75;;;;
2022/10/06 02:21:30;;;;;;;1.8;1;;;;;;;8.67;100;96281.75;;;;
2022/10/06 02:22:31;;;;;;;1.8;1;;;;;;;8.67;100;96281.75;;;;
2022/10/06 02:23:36;;;;;;;1.3;1.2;;;;;;;8.6;100;96291.27;;;;
2022/10/06 02:24:37;;;;;;;1.3;1.2;;;;;;;8.6;100;96291.27;;;;
2022/10/06 02:25:38;;;;;;;1.3;1.2;;;;;;;8.6;100;96291.27;;;;
2022/10/06 02:26:38;;;;;;;1.3;1.2;;;;;;;8.6;100;96291.27;;;;
2022/10/06 02:27:39;;;;;;;1.3;1.2;;;;;;;8.6;100;96291.27;;;;
2022/10/06 02:28:39;;;;;;;1.3;1.2;;;;;;;8.6;100;96291.27;;;;
2022/10/06 02:29:40;;;;;;;1.3;1.2;;;;;;;8.6;100;96291.27;;;;
2022/10/06 02:30:40;;;;;;;1.3;1.2;;;;;;;8.6;100;96291.27;;;;
2022/10/06 02:31:41;;;;;;;1.3;1.2;;;;;;;8.6;100;96291.27;;;;
2022/10/06 02:32:42;;;;;;;1.3;1.2;;;;;;;8.6;100;96291.27;;;;
2022/10/06 02:33:43;;;;;;;1;1;;;;;;;8.59;100;96290.55;;;;
2022/10/06 02:34:44;;;;;;;1;1;;;;;;;8.59;100;96290.55;;;;
2022/10/06 02:35:46;;;;;;;1;1;;;;;;;8.59;100;96290.55;;;;
2022/10/06 02:36:46;;;;;;;1;1;;;;;;;8.59;100;96290.55;;;;
2022/10/06 02:37:47;;;;;;;1;1;;;;;;;8.59;100;96290.55;;;;
2022/10/06 02:38:48;;;;;;;1;1;;;;;;;8.59;100;96290.55;;;;
2022/10/06 02:39:48;;;;;;;1;1;;;;;;;8.59;100;96290.55;;;;
2022/10/06 02:40:49;;;;;;;1;1;;;;;;;8.59;100;96290.55;;;;
2022/10/06 02:41:50;;;;;;;1;1;;;;;;;8.59;100;96290.55;;;;
2022/10/06 02:42:50;;;;;;;1;1;;;;;;;8.59;100;96290.55;;;;
2022/10/06 02:43:52;;;;;;;1;1;;;;;;;8.59;100;96290.55;;;;
2022/10/06 02:44:53;;;;;;;1.85;1.1;;;;;;;8.63;100;96301.95;;;;
2022/10/06 02:45:54;;;;;;;1.85;1.1;;;;;;;8.63;100;96301.95;;;;
2022/10/06 02:46:56;;;;;;;1.85;1.1;;;;;;;8.63;100;96301.95;;;;
2022/10/06 02:47:57;;;;;;;1.85;1.1;;;;;;;8.63;100;96301.95;;;;
2022/10/06 02:48:57;;;;;;;1.85;1.1;;;;;;;8.63;100;96301.95;;;;
2022/10/06 02:49:58;;;;;;;1.85;1.1;;;;;;;8.63;100;96301.95;;;;
2022/10/06 02:51:00;;;;;;;1.85;1.1;;;;;;;8.63;100;96301.95;;;;
2022/10/06 02:52:03;;;;;;;1.85;1.1;;;;;;;8.63;100;96301.95;;;;
2022/10/06 02:53:05;;;;;;;1.85;1.1;;;;;;;8.63;100;96301.95;;;;
2022/10/06 02:54:06;;;;;;;1.85;1.1;;;;;;;8.63;100;96301.95;;;;
2022/10/06 02:55:06;;;;;;;1.25;1.15;;;;;;;8.69;100;96317.88;;;;
2022/10/06 02:56:09;;;;;;;1.25;1.15;;;;;;;8.69;100;96317.88;;;;
2022/10/06 02:57:12;;;;;;;1.25;1.15;;;;;;;8.69;100;96317.88;;;;
2022/10/06 02:58:13;;;;;;;1.25;1.15;;;;;;;8.69;100;96317.88;;;;
2022/10/06 02:59:14;;;;;;;1.25;1.15;;;;;;;8.69;100;96317.88;;;;
2022/10/06 03:00:14;;;;;;;1.25;1.15;;;;;;;8.69;100;96317.88;;;;
2022/10/06 03:01:16;;;;;;;1.25;1.15;;;;;;;8.69;100;96317.88;;;;
2022/10/06 03:02:19;;;;;;;1.25;1.15;;;;;;;8.69;100;96317.88;;;;
2022/10/06 03:03:20;;;;;;;1.25;1.15;;;;;;;8.69;100;96317.88;;;;
2022/10/06 03:04:20;;;;;;;1.25;1.15;;;;;;;8.69;100;96317.88;;;;
2022/10/06 03:05:21;;;;;;;1.65;1.15;;;;;;;8.8;100;96317.99;;;;
2022/10/06 03:06:21;;;;;;;1.65;1.15;;;;;;;8.8;100;96317.99;;;;
2022/10/06 03:07:24;;;;;;;1.65;1.15;;;;;;;8.8;100;96317.99;;;;
2022/10/06 03:08:24;;;;;;;1.65;1.15;;;;;;;8.8;100;96317.99;;;;
2022/10/06 03:09:25;;;;;;;1.65;1.15;;;;;;;8.8;100;96317.99;;;;
2022/10/06 03:10:25;;;;;;;1.65;1.15;;;;;;;8.8;100;96317.99;;;;
2022/10/06 03:11:26;;;;;;;1.65;1.15;;;;;;;8.8;100;96317.99;;;;
2022/10/06 03:12:29;;;;;;;1.65;1.15;;;;;;;8.8;100;96317.99;;;;
2022/10/06 03:13:29;;;;;;;1.65;1.15;;;;;;;8.8;100;96317.99;;;;
2022/10/06 03:14:30;;;;;;;1.65;1.15;;;;;;;8.8;100;96317.99;;;;
2022/10/06 03:15:30;;;;;;;1.65;1.15;;;;;;;8.8;100;96317.99;;;;
2022/10/06 03:16:31;;;;;;;1.9;1.15;;;;;;;8.94;100;96329.08;;;;
2022/10/06 03:17:34;;;;;;;1.9;1.15;;;;;;;8.94;100;96329.08;;;;
2022/10/06 03:18:34;;;;;;;1.9;1.15;;;;;;;8.94;100;96329.08;;;;
2022/10/06 03:19:35;;;;;;;1.9;1.15;;;;;;;8.94;100;96329.08;;;;
2022/10/06 03:20:36;;;;;;;1.9;1.15;;;;;;;8.94;100;96329.08;;;;
2022/10/06 03:21:37;;;;;;;1.9;1.15;;;;;;;8.94;100;96329.08;;;;
2022/10/06 03:22:39;;;;;;;1.9;1.15;;;;;;;8.94;100;96329.08;;;;
2022/10/06 03:23:40;;;;;;;1.9;1.15;;;;;;;8.94;100;96329.08;;;;
2022/10/06 03:24:41;;;;;;;1.9;1.15;;;;;;;8.94;100;96329.08;;;;
2022/10/06 03:25:42;;;;;;;1.9;1.15;;;;;;;8.94;100;96329.08;;;;
2022/10/06 03:26:42;;;;;;;2.75;1.05;;;;;;;9.03;100;96344.25;;;;
2022/10/06 03:27:45;;;;;;;2.75;1.05;;;;;;;9.03;100;96344.25;;;;
2022/10/06 03:28:45;;;;;;;2.75;1.05;;;;;;;9.03;100;96344.25;;;;
2022/10/06 03:29:46;;;;;;;2.75;1.05;;;;;;;9.03;100;96344.25;;;;
2022/10/06 03:30:48;;;;;;;2.75;1.05;;;;;;;9.03;100;96344.25;;;;
2022/10/06 03:31:48;;;;;;;2.75;1.05;;;;;;;9.03;100;96344.25;;;;
2022/10/06 03:32:49;;;;;;;2.75;1.05;;;;;;;9.03;100;96344.25;;;;
2022/10/06 03:33:51;;;;;;;2.75;1.05;;;;;;;9.03;100;96344.25;;;;
2022/10/06 03:34:52;;;;;;;2.75;1.05;;;;;;;9.03;100;96344.25;;;;
2022/10/06 03:35:53;;;;;;;2.75;1.05;;;;;;;9.03;100;96344.25;;;;
2022/10/06 03:36:58;;;;;;;2.75;1.05;;;;;;;9.03;100;96344.25;;;;
2022/10/06 03:37:58;;;;;;;1.1;1;;;;;;;9.09;100;96349.33;;;;
2022/10/06 03:38:59;;;;;;;1.1;1;;;;;;;9.09;100;96349.33;;;;
2022/10/06 03:40:00;;;;;;;1.1;1;;;;;;;9.09;100;96349.33;;;;
2022/10/06 03:41:01;;;;;;;1.1;1;;;;;;;9.09;100;96349.33;;;;
2022/10/06 03:42:04;;;;;;;1.1;1;;;;;;;9.09;100;96349.33;;;;
2022/10/06 03:43:04;;;;;;;1.1;1;;;;;;;9.09;100;96349.33;;;;
2022/10/06 03:44:08;;;;;;;1.1;1;;;;;;;9.09;100;96349.33;;;;
2022/10/06 03:45:09;;;;;;;1.1;1;;;;;;;9.09;100;96349.33;;;;
2022/10/06 03:46:10;;;;;;;1.1;1;;;;;;;9.09;100;96349.33;;;;
2022/10/06 03:47:12;;;;;;;1.1;1;;;;;;;9.09;100;96349.33;;;;
2022/10/06 03:48:12;;;;;;;0.9;0.9;;;;;;;9.13;100;96357.12;;;;
2022/10/06 03:49:13;;;;;;;0.9;0.9;;;;;;;9.13;100;96357.12;;;;
2022/10/06 03:50:13;;;;;;;0.9;0.9;;;;;;;9.13;100;96357.12;;;;
2022/10/06 03:51:14;;;;;;;0.9;0.9;;;;;;;9.13;100;96357.12;;;;
2022/10/06 03:52:17;;;;;;;0.9;0.9;;;;;;;9.13;100;96357.12;;;;
2022/10/06 03:53:18;;;;;;;0.9;0.9;;;;;;;9.13;100;96357.12;;;;
2022/10/06 03:54:18;;;;;;;0.9;0.9;;;;;;;9.13;100;96357.12;;;;
2022/10/06 03:55:19;;;;;;;0.9;0.9;;;;;;;9.13;100;96357.12;;;;
2022/10/06 03:56:19;;;;;;;0.9;0.9;;;;;;;9.13;100;96357.12;;;;
2022/10/06 03:57:22;;;;;;;0.9;0.9;;;;;;;9.13;100;96357.12;;;;
2022/10/06 03:58:23;;;;;;;0.9;0.9;;;;;;;9.13;100;96357.12;;;;
2022/10/06 03:59:23;;;;;;;1.5;1;;;;;;;9.13;100;96367.75;;;;
2022/10/06 04:00:24;;;;;;;1.5;1;;;;;;;9.13;100;96367.75;;;;
2022/10/06 04:01:24;;;;;;;1.5;1;;;;;;;9.13;100;96367.75;;;;
2022/10/06 04:02:26;;;;;;;1.5;1;;;;;;;9.13;100;96367.75;;;;
2022/10/06 04:03:27;;;;;;;1.5;1;;;;;;;9.13;100;96367.75;;;;
2022/10/06 04:04:28;;;;;;;1.5;1;;;;;;;9.13;100;96367.75;;;;
2022/10/06 04:05:28;;;;;;;1.5;1;;;;;;;9.13;100;96367.75;;;;
2022/10/06 04:06:29;;;;;;;1.5;1;;;;;;;9.13;100;96367.75;;;;
2022/10/06 04:07:31;;;;;;;1.5;1;;;;;;;9.13;100;96367.75;;;;
2022/10/06 04:08:32;;;;;;;1.5;1;;;;;;;9.13;100;96367.75;;;;
2022/10/06 04:09:35;;;;;;;1.2;0.9;;;;;;;9.06;100;96373.32;;;;
2022/10/06 04:10:36;;;;;;;1.2;0.9;;;;;;;9.06;100;96373.32;;;;
2022/10/06 04:11:36;;;;;;;1.2;0.9;;;;;;;9.06;100;96373.32;;;;
2022/10/06 04:12:38;;;;;;;1.2;0.9;;;;;;;9.06;100;96373.32;;;;
2022/10/06 04:13:39;;;;;;;1.2;0.9;;;;;;;9.06;100;96373.32;;;;
2022/10/06 04:14:41;;;;;;;1.2;0.9;;;;;;;9.06;100;96373.32;;;;
2022/10/06 04:15:42;;;;;;;1.2;0.9;;;;;;;9.06;100;96373.32;;;;
2022/10/06 04:16:43;;;;;;;1.2;0.9;;;;;;;9.06;100;96373.32;;;;
2022/10/06 04:17:46;;;;;;;1.2;0.9;;;;;;;9.06;100;96373.32;;;;
2022/10/06 04:18:46;;;;;;;1.2;0.9;;;;;;;9.06;100;96373.32;;;;
2022/10/06 04:19:49;;;;;;;1.2;0.9;;;;;;;9.06;100;96373.32;;;;
2022/10/06 04:20:49;;;;;;;1.1;0.8;;;;;;;9.06;100;96383.87;;;;
2022/10/06 04:21:58;;;;;;;1.1;0.8;;;;;;;9.06;100;96383.87;;;;
2022/10/06 04:22:59;;;;;;;1.1;0.8;;;;;;;9.06;100;96383.87;;;;
2022/10/06 04:23:59;;;;;;;1.1;0.8;;;;;;;9.06;100;96383.87;;;;
2022/10/06 04:25:00;;;;;;;1.1;0.8;;;;;;;9.06;100;96383.87;;;;
2022/10/06 04:26:01;;;;;;;1.1;0.8;;;;;;;9.06;100;96383.87;;;;
2022/10/06 04:27:37;;;;;;;1.1;0.8;;;;;;;9.06;100;96383.87;;;;
2022/10/06 04:28:37;;;;;;;1.1;0.8;;;;;;;9.06;100;96383.87;;;;
2022/10/06 04:29:39;;;;;;;1.1;0.8;;;;;;;9.06;100;96383.87;;;;
2022/10/06 04:30:40;;;;;;;1.3;1;;;;;;;9.15;100;96392.55;;;;
2022/10/06 04:31:41;;;;;;;1.3;1;;;;;;;9.15;100;96392.55;;;;
2022/10/06 04:32:42;;;;;;;1.3;1;;;;;;;9.15;100;96392.55;;;;
2022/10/06 04:33:42;;;;;;;1.3;1;;;;;;;9.15;100;96392.55;;;;
2022/10/06 04:34:44;;;;;;;1.3;1;;;;;;;9.15;100;96392.55;;;;
2022/10/06 04:35:44;;;;;;;1.3;1;;;;;;;9.15;100;96392.55;;;;
2022/10/06 04:36:45;;;;;;;1.3;1;;;;;;;9.15;100;96392.55;;;;
2022/10/06 04:37:46;;;;;;;1.3;1;;;;;;;9.15;100;96392.55;;;;
2022/10/06 04:38:46;;;;;;;1.3;1;;;;;;;9.15;100;96392.55;;;;
2022/10/06 04:39:47;;;;;;;1.3;1;;;;;;;9.15;100;96392.55;;;;
2022/10/06 04:40:47;;;;;;;1.3;1;;;;;;;9.15;100;96392.55;;;;
2022/10/06 04:41:48;;;;;;;2;0.95;;;;;;;9.19;100;96398.21;;;;
2022/10/06 04:42:49;;;;;;;2;0.95;;;;;;;9.19;100;96398.21;;;;
2022/10/06 04:43:49;;;;;;;2;0.95;;;;;;;9.19;100;96398.21;;;;
2022/10/06 04:44:50;;;;;;;2;0.95;;;;;;;9.19;100;96398.21;;;;
2022/10/06 04:45:51;;;;;;;2;0.95;;;;;;;9.19;100;96398.21;;;;
2022/10/06 04:46:56;;;;;;;2;0.95;;;;;;;9.19;100;96398.21;;;;
2022/10/06 04:47:56;;;;;;;2;0.95;;;;;;;9.19;100;96398.21;;;;
2022/10/06 04:48:57;;;;;;;2;0.95;;;;;;;9.19;100;96398.21;;;;
2022/10/06 04:49:57;;;;;;;2;0.95;;;;;;;9.19;100;96398.21;;;;
2022/10/06 04:50:58;;;;;;;2;0.95;;;;;;;9.19;100;96398.21;;;;
2022/10/06 04:52:00;;;;;;;1.45;0.9;;;;;;;9.16;100;96406.58;;;;
2022/10/06 04:53:00;;;;;;;1.45;0.9;;;;;;;9.16;100;96406.58;;;;
2022/10/06 04:54:02;;;;;;;1.45;0.9;;;;;;;9.16;100;96406.58;;;;
2022/10/06 04:55:03;;;;;;;1.45;0.9;;;;;;;9.16;100;96406.58;;;;
2022/10/06 04:56:04;;;;;;;1.45;0.9;;;;;;;9.16;100;96406.58;;;;
2022/10/06 04:57:07;;;;;;;1.45;0.9;;;;;;;9.16;100;96406.58;;;;
2022/10/06 04:58:08;;;;;;;1.45;0.9;;;;;;;9.16;100;96406.58;;;;
2022/10/06 04:59:09;;;;;;;1.45;0.9;;;;;;;9.16;100;96406.58;;;;
2022/10/06 05:00:25;;;;;;;1.45;0.9;;;;;;;9.16;100;96406.58;;;;
2022/10/06 05:01:26;;;;;;;1.45;0.9;;;;;;;9.16;100;96406.58;;;;
2022/10/06 05:02:28;;;;;;;1.45;0.9;;;;;;;9.16;100;96406.58;;;;
2022/10/06 05:03:28;;;;;;;1.3;1;;;;;;;9.09;100;96417;;;;
2022/10/06 05:04:30;;;;;;;1.3;1;;;;;;;9.09;100;96417;;;;
2022/10/06 05:05:30;;;;;;;1.3;1;;;;;;;9.09;100;96417;;;;
2022/10/06 05:06:31;;;;;;;1.3;1;;;;;;;9.09;100;96417;;;;
2022/10/06 05:07:34;;;;;;;1.3;1;;;;;;;9.09;100;96417;;;;
2022/10/06 05:08:34;;;;;;;1.3;1;;;;;;;9.09;100;96417;;;;
2022/10/06 05:09:35;;;;;;;1.3;1;;;;;;;9.09;100;96417;;;;
2022/10/06 05:10:35;;;;;;;1.3;1;;;;;;;9.09;100;96417;;;;
2022/10/06 05:11:36;;;;;;;1.3;1;;;;;;;9.09;100;96417;;;;
2022/10/06 05:12:37;;;;;;;1.3;1;;;;;;;9.09;100;96417;;;;
2022/10/06 05:13:38;;;;;;;1.3;0.9;;;;;;;9.05;100;96430.61;;;;
2022/10/06 05:14:38;;;;;;;1.3;0.9;;;;;;;9.05;100;96430.61;;;;
2022/10/06 05:15:39;;;;;;;1.3;0.9;;;;;;;9.05;100;96430.61;;;;
2022/10/06 05:16:41;;;;;;;1.3;0.9;;;;;;;9.05;100;96430.61;;;;
2022/10/06 05:17:42;;;;;;;1.3;0.9;;;;;;;9.05;100;96430.61;;;;
2022/10/06 05:18:42;;;;;;;1.3;0.9;;;;;;;9.05;100;96430.61;;;;
2022/10/06 05:19:43;;;;;;;1.3;0.9;;;;;;;9.05;100;96430.61;;;;
2022/10/06 05:20:43;;;;;;;1.3;0.9;;;;;;;9.05;100;96430.61;;;;
2022/10/06 05:21:54;;;;;;;1.3;0.9;;;;;;;9.05;100;96430.61;;;;
2022/10/06 05:22:54;;;;;;;1.3;0.9;;;;;;;9.05;100;96430.61;;;;
2022/10/06 05:23:55;;;;;;;1.3;0.9;;;;;;;9.05;100;96430.61;;;;
2022/10/06 05:24:56;;;;;;;1.4;1.25;;;;;;;9.01;100;96431.14;;;;
2022/10/06 05:25:56;;;;;;;1.4;1.25;;;;;;;9.01;100;96431.14;;;;
2022/10/06 05:27:00;;;;;;;1.4;1.25;;;;;;;9.01;100;96431.14;;;;
2022/10/06 05:28:01;;;;;;;1.4;1.25;;;;;;;9.01;100;96431.14;;;;
2022/10/06 05:29:01;;;;;;;1.4;1.25;;;;;;;9.01;100;96431.14;;;;
2022/10/06 05:30:02;;;;;;;1.4;1.25;;;;;;;9.01;100;96431.14;;;;
2022/10/06 05:31:03;;;;;;;1.4;1.25;;;;;;;9.01;100;96431.14;;;;
2022/10/06 05:32:06;;;;;;;1.4;1.25;;;;;;;9.01;100;96431.14;;;;
2022/10/06 05:33:06;;;;;;;1.4;1.25;;;;;;;9.01;100;96431.14;;;;
2022/10/06 05:34:07;;;;;;;1.4;1.25;;;;;;;9.01;100;96431.14;;;;
2022/10/06 05:35:08;;;;;;;2.5;0.8;;;;;;;8.96;100;96438.26;;;;
2022/10/06 05:36:08;;;;;;;2.5;0.8;;;;;;;8.96;100;96438.26;;;;
2022/10/06 05:37:11;;;;;;;2.5;0.8;;;;;;;8.96;100;96438.26;;;;
2022/10/06 05:38:11;;;;;;;2.5;0.8;;;;;;;8.96;100;96438.26;;;;
2022/10/06 05:39:12;;;;;;;2.5;0.8;;;;;;;8.96;100;96438.26;;;;
2022/10/06 05:40:12;;;;;;;2.5;0.8;;;;;;;8.96;100;96438.26;;;;
2022/10/06 05:41:13;;;;;;;2.5;0.8;;;;;;;8.96;100;96438.26;;;;
2022/10/06 05:42:15;;;;;;;2.5;0.8;;;;;;;8.96;100;96438.26;;;;
2022/10/06 05:43:16;;;;;;;2.5;0.8;;;;;;;8.96;100;96438.26;;;;
2022/10/06 05:44:17;;;;;;;2.5;0.8;;;;;;;8.96;100;96438.26;;;;
2022/10/06 05:45:17;;;;;;;2.5;0.8;;;;;;;8.96;100;96438.26;;;;
2022/10/06 05:46:19;;;;;;;1.2;0.9;;;;;;;8.92;100;96462.48;;;;
2022/10/06 05:47:22;;;;;;;1.2;0.9;;;;;;;8.92;100;96462.48;;;;
2022/10/06 05:48:22;;;;;;;1.2;0.9;;;;;;;8.92;100;96462.48;;;;
2022/10/06 05:49:23;;;;;;;1.2;0.9;;;;;;;8.92;100;96462.48;;;;
2022/10/06 05:50:24;;;;;;;1.2;0.9;;;;;;;8.92;100;96462.48;;;;
2022/10/06 05:51:24;;;;;;;1.2;0.9;;;;;;;8.92;100;96462.48;;;;
2022/10/06 05:52:27;;;;;;;1.2;0.9;;;;;;;8.92;100;96462.48;;;;
2022/10/06 05:53:27;;;;;;;1.2;0.9;;;;;;;8.92;100;96462.48;;;;
2022/10/06 05:54:30;;;;;;;1.2;0.9;;;;;;;8.92;100;96462.48;;;;
2022/10/06 05:55:30;;;;;;;1.2;0.9;;;;;;;8.92;100;96462.48;;;;
2022/10/06 05:56:31;;;;;;;1.8;0.9;;;;;;;9;100;96476.05;;;;
2022/10/06 05:57:33;;;;;;;1.8;0.9;;;;;;;9;100;96476.05;;;;
2022/10/06 05:58:34;;;;;;;1.8;0.9;;;;;;;9;100;96476.05;;;;
2022/10/06 05:59:37;;;;;;;1.8;0.9;;;;;;;9;100;96476.05;;;;
2022/10/06 06:00:37;;;;;;;1.8;0.9;;;;;;;9;100;96476.05;;;;
2022/10/06 06:01:38;;;;;;;1.8;0.9;;;;;;;9;100;96476.05;;;;
2022/10/06 06:02:41;;;;;;;1.8;0.9;;;;;;;9;100;96476.05;;;;
2022/10/06 06:03:41;;;;;;;1.8;0.9;;;;;;;9;100;96476.05;;;;
2022/10/06 06:04:46;;;;;;;1.8;0.9;;;;;;;9;100;96476.05;;;;
2022/10/06 06:05:46;;;;;;;1.8;0.9;;;;;;;9;100;96476.05;;;;
2022/10/06 06:06:47;;;;;;;3;0.9;;;;;;;9.27;100;96486.52;;;;
2022/10/06 06:07:48;;;;;;;3;0.9;;;;;;;9.27;100;96486.52;;;;
2022/10/06 06:08:48;;;;;;;3;0.9;;;;;;;9.27;100;96486.52;;;;
2022/10/06 06:09:52;;;;;;;3;0.9;;;;;;;9.27;100;96486.52;;;;
2022/10/06 06:10:52;;;;;;;3;0.9;;;;;;;9.27;100;96486.52;;;;
2022/10/06 06:11:53;;;;;;;3;0.9;;;;;;;9.27;100;96486.52;;;;
2022/10/06 06:12:53;;;;;;;3;0.9;;;;;;;9.27;100;96486.52;;;;
2022/10/06 06:13:54;;;;;;;3;0.9;;;;;;;9.27;100;96486.52;;;;
2022/10/06 06:16:00;;;;;;;3;0.9;;;;;;;9.27;100;96486.52;;;;
2022/10/06 06:17:04;;;;;;;3;0.9;;;;;;;9.27;100;96486.52;;;;
2022/10/06 06:18:05;;;;;;;1.5;1;;;;;;;9.65;100;96499.31;;;;
2022/10/06 06:19:05;;;;;;;1.5;1;;;;;;;9.65;100;96499.31;;;;
2022/10/06 06:20:08;;;;;;;1.5;1;;;;;;;9.65;100;96499.31;;;;
2022/10/06 06:21:09;;;;;;;1.5;1;;;;;;;9.65;100;96499.31;;;;
2022/10/06 06:22:10;;;;;;;1.5;1;;;;;;;9.65;100;96499.31;;;;
2022/10/06 06:23:10;;;;;;;1.5;1;;;;;;;9.65;100;96499.31;;;;
2022/10/06 06:24:11;;;;;;;1.5;1;;;;;;;9.65;100;96499.31;;;;
2022/10/06 06:25:11;;;;;;;1.5;1;;;;;;;9.65;100;96499.31;;;;
2022/10/06 06:26:12;;;;;;;1.5;1;;;;;;;9.65;100;96499.31;;;;
2022/10/06 06:27:14;;;;;;;1.5;1;;;;;;;9.65;100;96499.31;;;;
2022/10/06 06:28:15;;;;;;;1.75;1;;;;;;;10.08;100;96510.96;;;;
2022/10/06 06:29:15;;;;;;;1.75;1;;;;;;;10.08;100;96510.96;;;;
2022/10/06 06:30:16;;;;;;;1.75;1;;;;;;;10.08;100;96510.96;;;;
2022/10/06 06:31:18;;;;;;;1.75;1;;;;;;;10.08;100;96510.96;;;;
2022/10/06 06:32:21;;;;;;;1.75;1;;;;;;;10.08;100;96510.96;;;;
2022/10/06 06:33:22;;;;;;;1.75;1;;;;;;;10.08;100;96510.96;;;;
2022/10/06 06:34:24;;;;;;;1.75;1;;;;;;;10.08;100;96510.96;;;;
2022/10/06 06:35:24;;;;;;;1.75;1;;;;;;;10.08;100;96510.96;;;;
2022/10/06 06:36:25;;;;;;;1.75;1;;;;;;;10.08;100;96510.96;;;;
2022/10/06 06:37:29;;;;;;;1.75;1;;;;;;;10.08;100;96510.96;;;;